Time;durP1;ratioP1;P1;durP2;ratioP2;P2;SDS_P1;SDS_P2;PMS_P1;PMS_P2;Temp;Humidity;BMP_temperature;BMP_pressure;BME280_temperature;BME280_humidity;BME280_pressure;Samples;Min_cycle;Max_cycle;Signal;HPM_P1;HPM_P2
2022/06/03 00:01:33;;;;;;;5.40;3.92;;;17.20;56.60;;;17.58;47.57;97693.69;5025891;28;20327;-43
2022/06/03 00:04:28;;;;;;;5.50;3.25;;;17.20;56.30;;;17.54;47.59;97691.63;5024394;28;20067;-44
2022/06/03 00:07:25;;;;;;;4.07;3.70;;;17.20;57.00;;;17.50;47.82;97692.03;5028278;28;20053;-45
2022/06/03 00:10:21;;;;;;;4.65;3.55;;;17.00;56.30;;;17.40;47.97;97691.59;5031334;28;20053;-45
2022/06/03 00:13:18;;;;;;;3.35;2.95;;;16.90;56.50;;;17.37;48.37;97683.94;5032767;28;20053;-46
2022/06/03 00:16:14;;;;;;;4.93;3.70;;;16.90;57.80;;;17.38;48.45;97677.50;5031226;28;20049;-44
2022/06/03 00:19:04;;;;;;;4.10;3.70;;;17.00;57.70;;;17.40;48.49;97671.94;5032812;28;20059;-46
2022/06/03 00:22:01;;;;;;;3.80;3.40;;;17.00;58.00;;;17.41;48.40;97668.19;5030261;28;20071;-46
2022/06/03 00:24:58;;;;;;;4.78;3.58;;;17.00;57.00;;;17.37;48.33;97672.31;5036003;28;20057;-45
2022/06/03 00:27:57;;;;;;;4.00;3.53;;;17.00;57.80;;;17.35;48.59;97682.47;5032986;28;20354;-43
2022/06/03 00:30:41;;;;;;;4.68;4.03;;;17.00;57.30;;;17.34;48.54;97676.25;5033750;28;20052;-45
2022/06/03 00:33:41;;;;;;;4.72;4.05;;;17.00;57.80;;;17.32;48.72;97675.66;5033243;28;20049;-46
2022/06/03 00:36:27;;;;;;;4.32;3.80;;;17.00;57.10;;;17.32;48.96;97675.66;5030752;28;20253;-44
2022/06/03 00:39:47;;;;;;;5.65;3.70;;;16.90;57.20;;;17.24;48.82;97668.59;5033034;28;20058;-45
2022/06/03 00:42:48;;;;;;;4.65;3.67;;;16.90;58.80;;;17.23;49.11;97669.59;5031857;28;20058;-45
2022/06/03 00:46:01;;;;;;;4.38;3.80;;;16.80;57.90;;;17.14;49.05;97673.53;5031910;28;20046;-44
2022/06/03 00:49:08;;;;;;;3.75;3.35;;;16.70;59.50;;;17.13;49.40;97679.94;5029681;28;20272;-43
2022/06/03 00:52:12;;;;;;;3.72;3.35;;;16.70;59.90;;;17.09;49.39;97679.50;5032173;28;20064;-43
2022/06/03 00:55:55;;;;;;;4.10;3.70;;;16.70;59.60;;;17.06;49.26;97676.38;5031434;28;20093;-42
2022/06/03 00:58:53;;;;;;;3.92;3.20;;;16.70;59.50;;;17.08;49.86;97668.97;5030842;28;20045;-43
2022/06/03 01:01:32;;;;;;;4.03;3.63;;;16.70;58.70;;;17.06;49.61;97666.47;5039265;28;20091;-44
2022/06/03 01:04:25;;;;;;;5.00;3.95;;;16.70;59.00;;;17.05;49.60;97663.97;5030930;28;20061;-44
2022/06/03 01:07:12;;;;;;;6.57;4.85;;;16.70;59.60;;;17.06;49.56;97662.94;5031842;28;20079;-48
2022/06/03 01:09:58;;;;;;;4.65;4.25;;;16.70;59.40;;;17.05;49.90;97662.13;5032605;28;20507;-47
2022/06/03 01:12:48;;;;;;;4.38;3.60;;;16.80;58.90;;;17.04;49.97;97662.31;5047508;28;20079;-45
2022/06/03 01:15:47;;;;;;;5.35;4.47;;;16.70;58.30;;;17.03;49.84;97658.78;5032917;28;20068;-45
2022/06/03 01:18:53;;;;;;;5.32;3.80;;;16.70;59.50;;;17.03;49.88;97668.72;5029092;28;20068;-45
2022/06/03 01:21:30;;;;;;;4.38;3.78;;;16.70;59.20;;;17.00;49.85;97666.44;5027856;28;20058;-43
2022/06/03 01:24:42;;;;;;;4.40;4.00;;;16.60;58.50;;;16.96;50.17;97678.63;5029091;28;20075;-43
2022/06/03 01:27:15;;;;;;;4.20;3.80;;;16.60;60.30;;;16.92;50.22;97676.34;5028781;28;20050;-44
2022/06/03 01:30:13;;;;;;;4.72;3.83;;;16.50;59.50;;;16.90;50.29;97680.25;5028837;28;20045;-45
2022/06/03 01:33:00;;;;;;;5.03;4.53;;;16.50;60.00;;;16.88;50.57;97683.13;5029689;28;20433;-43
2022/06/03 01:35:53;;;;;;;4.85;4.38;;;16.50;59.30;;;16.82;50.18;97673.19;5030386;28;20061;-43
2022/06/03 01:38:46;;;;;;;5.25;3.75;;;16.40;60.00;;;16.80;50.34;97672.53;5027568;28;20057;-47
2022/06/03 01:41:51;;;;;;;4.63;4.10;;;16.40;60.50;;;16.72;50.57;97686.16;5027957;28;20049;-45
2022/06/03 01:44:57;;;;;;;5.13;4.13;;;16.30;59.80;;;16.68;50.77;97690.28;5028559;28;20041;-44
2022/06/03 01:47:24;;;;;;;6.72;4.75;;;16.30;61.40;;;16.66;50.72;97681.56;5028020;28;20045;-44
2022/06/03 01:50:35;;;;;;;5.60;4.20;;;16.20;60.00;;;16.61;50.83;97678.66;5028948;28;20363;-44
2022/06/03 01:53:42;;;;;;;4.72;4.13;;;16.20;61.60;;;16.59;51.07;97686.09;5029183;28;20057;-44
2022/06/03 01:56:34;;;;;;;6.43;4.80;;;16.20;60.60;;;16.56;51.20;97681.94;5027848;28;20053;-44
2022/06/03 01:59:34;;;;;;;4.78;4.32;;;16.10;61.00;;;16.47;51.39;97680.44;5028115;28;20045;-44
2022/06/03 02:02:21;;;;;;;4.95;4.05;;;16.00;62.30;;;16.43;51.34;97681.88;5028322;28;20059;-44
2022/06/03 02:05:06;;;;;;;6.93;4.95;;;16.00;62.60;;;16.43;51.54;97679.19;5028646;28;20064;-46
2022/06/03 02:08:08;;;;;;;4.57;4.10;;;16.00;62.20;;;16.43;51.32;97681.88;5028785;28;20267;-46
2022/06/03 02:11:28;;;;;;;7.03;4.10;;;16.00;61.30;;;16.45;51.17;97674.44;5028521;28;20063;-45
2022/06/03 02:14:29;;;;;;;5.82;4.68;;;16.10;62.10;;;16.44;51.45;97662.88;5028435;28;20343;-44
2022/06/03 02:17:33;;;;;;;6.40;4.93;;;16.10;62.20;;;16.43;51.49;97655.81;5027917;28;20247;-45
2022/06/03 02:20:34;;;;;;;4.50;4.10;;;16.00;62.50;;;16.43;51.43;97666.56;5026157;28;20057;-46
2022/06/03 02:23:43;;;;;;;6.90;4.25;;;16.00;61.70;;;16.38;51.49;97665.50;5028504;28;20240;-46
2022/06/03 02:26:23;;;;;;;4.38;3.97;;;15.90;62.50;;;16.38;51.45;97666.34;5028010;28;20175;-46
2022/06/03 02:32:45;;;;;;;5.32;4.28;;;16.00;60.80;;;16.38;51.50;97660.13;5043263;28;20272;-47
2022/06/03 02:35:36;;;;;;;4.38;3.90;;;16.00;62.30;;;16.37;51.62;97658.47;5028261;28;20067;-44
2022/06/03 02:38:47;;;;;;;5.65;3.70;;;16.00;61.80;;;16.34;51.42;97662.38;5026065;28;20300;-45
2022/06/03 02:41:55;;;;;;;5.32;3.95;;;16.00;62.00;;;16.31;51.57;97657.41;5026342;28;20053;-44
2022/06/03 02:45:22;;;;;;;6.95;4.00;;;15.90;61.50;;;16.29;51.53;97662.16;5027475;28;20057;-47
2022/06/03 02:48:25;;;;;;;5.90;4.32;;;16.00;62.30;;;16.32;51.80;97661.75;5027255;28;20608;-49
2022/06/03 02:51:45;;;;;;;4.82;4.03;;;15.90;62.00;;;16.31;51.59;97660.91;5027101;28;20243;-49
2022/06/03 02:54:14;;;;;;;4.88;4.38;;;15.90;62.10;;;16.32;51.90;97667.97;5026319;28;20069;-45
2022/06/03 02:57:03;;;;;;;5.22;4.72;;;15.90;61.10;;;16.30;51.79;97661.97;5026300;28;20052;-44
2022/06/03 02:59:42;;;;;;;4.13;3.72;;;15.90;61.20;;;16.28;52.04;97668.53;5026548;28;20369;-44
2022/06/03 03:02:36;;;;;;;6.85;3.75;;;15.90;62.00;;;16.27;51.97;97664.19;5027652;28;20055;-47
2022/06/03 03:05:26;;;;;;;4.82;4.32;;;15.90;61.70;;;16.26;52.06;97667.91;5025071;28;20053;-47
2022/06/03 03:08:20;;;;;;;4.90;4.10;;;15.90;62.50;;;16.27;52.04;97665.03;5027409;28;20055;-45
2022/06/03 03:11:04;;;;;;;6.22;4.05;;;16.00;62.20;;;16.30;52.09;97664.66;5027365;28;20470;-47
2022/06/03 03:14:06;;;;;;;5.63;3.90;;;16.00;61.00;;;16.31;51.83;97658.22;5027241;28;20053;-44
2022/06/03 03:16:55;;;;;;;6.82;4.65;;;16.00;61.40;;;16.33;51.74;97666.91;5026005;28;20058;-46
2022/06/03 03:19:54;;;;;;;5.05;4.15;;;16.10;61.90;;;16.33;51.79;97664.22;5027273;28;20225;-45
2022/06/03 03:23:01;;;;;;;4.80;4.10;;;16.10;61.60;;;16.36;51.81;97664.88;5026576;28;20352;-45
2022/06/03 03:25:37;;;;;;;5.85;4.68;;;16.00;61.40;;;16.36;51.67;97662.19;5026402;28;20045;-43
2022/06/03 03:28:54;;;;;;;5.88;4.03;;;16.00;60.80;;;16.34;51.84;97659.69;5027482;28;20076;-45
2022/06/03 03:31:34;;;;;;;4.80;3.85;;;16.00;61.90;;;16.37;51.81;97653.94;5025468;28;20079;-46
2022/06/03 03:34:42;;;;;;;4.40;4.00;;;16.10;61.20;;;16.38;51.90;97652.06;5026446;28;20045;-44
2022/06/03 03:37:21;;;;;;;6.50;4.38;;;16.10;61.70;;;16.39;51.89;97651.03;5025485;28;20430;-45
2022/06/03 03:39:58;;;;;;;4.82;4.38;;;16.10;61.60;;;16.41;51.87;97655.19;5026772;28;20054;-45
2022/06/03 03:42:46;;;;;;;4.95;3.97;;;16.10;60.80;;;16.43;51.78;97660.38;5024866;28;20057;-44
2022/06/03 03:45:39;;;;;;;4.35;3.78;;;16.20;61.40;;;16.44;51.99;97665.56;5026690;28;20590;-44
2022/06/03 03:48:24;;;;;;;5.03;4.25;;;16.10;60.90;;;16.45;51.74;97652.94;5025604;28;20057;-46
2022/06/03 03:51:15;;;;;;;4.75;4.00;;;16.20;61.30;;;16.47;51.77;97651.69;5026210;28;20049;-46
2022/06/03 03:54:40;;;;;;;5.70;3.78;;;16.20;61.00;;;16.46;51.97;97646.53;5025819;28;20048;-47
2022/06/03 03:57:37;;;;;;;4.47;3.63;;;16.20;61.70;;;16.47;51.77;97650.88;5025509;28;20367;-45
2022/06/03 04:00:33;;;;;;;6.38;4.10;;;16.20;61.50;;;16.47;51.72;97646.31;5025568;28;20060;-46
2022/06/03 04:03:19;;;;;;;4.75;4.00;;;16.20;61.30;;;16.47;51.72;97648.19;5026742;28;20059;-45
2022/06/03 04:06:36;;;;;;;4.45;4.00;;;16.10;60.70;;;16.43;52.08;97649.63;5026873;28;20049;-44
2022/06/03 04:09:48;;;;;;;5.30;4.25;;;16.10;62.10;;;16.40;51.97;97656.22;5009566;28;20065;-47
2022/06/03 04:12:40;;;;;;;5.22;3.90;;;16.10;62.20;;;16.41;51.96;97639.06;5026033;28;20067;-46
2022/06/03 04:16:04;;;;;;;7.03;4.72;;;16.10;61.20;;;16.41;52.06;97641.75;5028337;28;20054;-45
2022/06/03 04:19:34;;;;;;;4.40;3.90;;;16.10;62.00;;;16.40;51.92;97637.41;5025272;28;20049;-44
2022/06/03 04:23:06;;;;;;;4.40;4.00;;;16.10;62.00;;;16.40;52.08;97644.63;5025438;28;20068;-45
2022/06/03 04:25:36;;;;;;;6.68;5.00;;;16.10;62.30;;;16.41;52.28;97639.06;5025339;28;20065;-43
2022/06/03 04:28:26;;;;;;;8.13;4.63;;;16.00;61.40;;;16.40;52.11;97640.09;5025543;28;20057;-45
2022/06/03 04:31:29;;;;;;;5.10;4.55;;;16.10;61.90;;;16.41;52.11;97635.56;5026233;28;20064;-45
2022/06/03 04:34:13;;;;;;;6.38;4.05;;;16.10;62.40;;;16.42;52.36;97645.25;5025911;28;20041;-45
2022/06/03 04:36:59;;;;;;;5.35;4.18;;;16.10;61.50;;;16.42;52.21;97642.56;5026378;28;20057;-47
2022/06/03 04:40:02;;;;;;;6.25;4.72;;;16.10;61.50;;;16.40;52.44;97653.53;5026627;28;20370;-45
2022/06/03 04:43:15;;;;;;;6.07;4.03;;;16.20;62.40;;;16.43;52.31;97644.25;5008529;28;20072;-43
2022/06/03 04:46:28;;;;;;;7.15;4.47;;;16.30;62.50;;;16.44;52.50;97635.13;5027055;28;20056;-44
2022/06/03 04:49:38;;;;;;;5.40;4.43;;;16.30;62.50;;;16.47;52.58;97643.63;5024700;28;20050;-44
2022/06/03 04:52:46;;;;;;;5.07;4.13;;;16.20;62.50;;;16.49;52.61;97636.22;5026112;28;20045;-46
2022/06/03 04:55:35;;;;;;;5.05;4.55;;;16.30;63.10;;;16.52;52.79;97643.88;5029618;28;20368;-43
2022/06/03 04:58:31;;;;;;;5.47;4.38;;;16.30;62.40;;;16.57;52.90;97637.91;5029868;28;20063;-48
2022/06/03 05:01:40;;;;;;;7.75;4.70;;;16.30;63.30;;;16.60;53.25;97640.19;5028300;28;20053;-45
2022/06/03 05:04:44;;;;;;;6.35;4.63;;;16.40;63.00;;;16.66;53.19;97635.88;5028946;28;20059;-44
2022/06/03 05:07:46;;;;;;;5.72;4.40;;;16.50;63.50;;;16.71;53.09;97638.78;5028707;28;20240;-43
2022/06/03 05:10:39;;;;;;;5.45;4.03;;;16.60;62.50;;;16.78;53.07;97634.28;5028870;28;20045;-47
2022/06/03 05:13:38;;;;;;;5.22;4.72;;;16.70;62.80;;;16.82;52.91;97640.94;5028050;28;20055;-45
2022/06/03 05:16:59;;;;;;;6.80;4.47;;;16.70;61.70;;;16.84;52.93;97652.31;5028212;28;20059;-43
2022/06/03 05:20:05;;;;;;;5.78;4.25;;;16.80;62.30;;;16.86;52.79;97639.50;5027813;28;20065;-47
2022/06/03 05:22:55;;;;;;;6.22;4.22;;;16.70;62.90;;;16.88;53.23;97640.13;5026599;28;20060;-47
2022/06/03 05:26:17;;;;;;;5.63;4.50;;;16.70;62.20;;;16.89;53.06;97631.03;5028872;28;20063;-47
2022/06/03 05:29:23;;;;;;;5.13;4.45;;;16.70;63.10;;;16.91;53.39;97633.53;5027410;28;20059;-47
2022/06/03 05:32:25;;;;;;;5.25;4.65;;;16.80;63.60;;;16.93;53.27;97626.91;5027412;28;20060;-45
2022/06/03 05:35:26;;;;;;;6.43;4.80;;;16.80;63.90;;;16.96;53.68;97630.22;5027232;28;20071;-46
2022/06/03 05:38:05;;;;;;;6.05;4.78;;;16.90;63.90;;;16.97;53.89;97626.53;5027225;28;20053;-48
2022/06/03 05:40:56;;;;;;;8.00;4.85;;;16.90;63.50;;;16.98;54.19;97633.53;5027487;28;20049;-49
2022/06/03 05:43:53;;;;;;;5.80;5.18;;;16.90;62.90;;;17.01;54.06;97625.91;5027400;28;20116;-45
2022/06/03 05:47:06;;;;;;;7.68;6.07;;;16.90;64.20;;;17.07;53.93;97635.84;5027991;28;20052;-45
2022/06/03 05:49:49;;;;;;;5.90;5.38;;;17.00;64.40;;;17.15;54.11;97645.59;5028569;28;20240;-45
2022/06/03 05:52:43;;;;;;;8.00;5.72;;;17.10;63.70;;;17.22;54.05;97648.31;5028378;28;20071;-45
2022/06/03 05:55:22;;;;;;;6.57;5.80;;;17.20;63.90;;;17.26;54.22;97634.25;5028572;28;20072;-46
2022/06/03 05:58:38;;;;;;;7.80;6.22;;;17.20;63.30;;;17.30;55.04;97638.16;5027948;28;20172;-44
2022/06/03 06:01:57;;;;;;;6.47;5.82;;;17.30;64.10;;;17.38;54.14;97630.94;5028281;28;20037;-49
2022/06/03 06:04:30;;;;;;;6.72;6.05;;;17.40;64.30;;;17.47;54.35;97627.84;5027791;28;20060;-46
2022/06/03 06:07:32;;;;;;;8.18;6.05;;;17.40;63.20;;;17.53;54.40;97626.22;5024289;28;20537;-47
2022/06/03 06:10:27;;;;;;;5.78;5.18;;;17.50;64.30;;;17.62;54.22;97624.97;5028069;28;20051;-46
2022/06/03 06:13:49;;;;;;;8.25;6.45;;;17.60;63.90;;;17.68;54.39;97623.28;5025924;28;20061;-45
2022/06/03 06:16:26;;;;;;;6.78;6.03;;;17.80;65.00;;;17.79;54.51;97624.53;5024326;28;20060;-43
2022/06/03 06:19:14;;;;;;;8.25;6.45;;;17.80;63.60;;;17.85;54.53;97619.19;5024180;28;20061;-46
2022/06/03 06:22:16;;;;;;;7.88;7.07;;;17.90;64.30;;;17.87;55.30;97611.75;5037690;28;20261;-45
2022/06/03 06:25:10;;;;;;;7.68;6.80;;;18.00;65.00;;;17.94;55.08;97613.59;5027220;28;20063;-43
2022/06/03 06:28:29;;;;;;;10.15;6.93;;;18.00;64.60;;;18.01;54.38;97614.41;5025446;28;20060;-44
2022/06/03 06:31:38;;;;;;;9.55;6.82;;;18.10;64.80;;;18.10;54.99;97615.84;5025604;28;20068;-44
2022/06/03 06:34:27;;;;;;;7.50;6.80;;;18.20;65.10;;;18.18;54.95;97617.50;5027481;28;20041;-43
2022/06/03 06:36:57;;;;;;;8.07;6.38;;;18.30;64.10;;;18.23;55.12;97626.59;5026762;28;20059;-47
2022/06/03 06:39:31;;;;;;;7.85;6.43;;;18.40;64.40;;;18.30;55.22;97632.81;5026469;28;20049;-43
2022/06/03 06:42:18;;;;;;;6.68;6.07;;;18.40;64.30;;;18.38;54.99;97629.06;5026910;28;20044;-45
2022/06/03 06:45:27;;;;;;;7.90;5.95;;;18.50;64.40;;;18.45;54.72;97627.16;5027150;28;20054;-46
2022/06/03 06:48:21;;;;;;;7.18;6.45;;;18.60;64.30;;;18.55;54.79;97628.59;5027651;28;20049;-45
2022/06/03 06:50:56;;;;;;;8.27;6.38;;;18.70;64.40;;;18.62;54.87;97613.22;5025438;28;20049;-47
2022/06/03 06:53:36;;;;;;;6.55;5.75;;;18.80;63.90;;;18.67;54.81;97616.94;5027946;28;20344;-47
2022/06/03 06:56:49;;;;;;;6.95;6.25;;;18.80;64.00;;;18.72;55.16;97621.66;5027761;28;20099;-44
2022/06/03 06:59:38;;;;;;;8.23;5.80;;;18.90;64.60;;;18.78;55.54;97620.00;5014916;28;20365;-44
2022/06/03 07:02:29;;;;;;;7.30;6.63;;;18.90;64.60;;;18.83;55.04;97612.13;5006537;28;20054;-44
2022/06/03 07:05:15;;;;;;;7.38;6.57;;;19.00;64.10;;;18.87;55.35;97611.47;5007274;28;20057;-43
2022/06/03 07:08:09;;;;;;;7.47;6.45;;;19.00;65.50;;;18.92;55.00;97610.84;5005690;28;20056;-44
2022/06/03 07:11:09;;;;;;;;;;;19.10;64.50;;;18.94;54.96;97614.16;5007385;28;20307;-44
2022/06/03 07:13:57;;;;;;;9.10;6.90;;;19.10;65.60;;;19.05;55.35;97615.31;5009196;28;19917;-44
2022/06/03 07:20:35;;;;;;;7.88;6.25;;;19.30;66.00;;;19.19;55.59;97606.13;5006117;28;20236;-46
2022/06/03 07:23:11;;;;;;;8.55;6.35;;;19.30;66.10;;;19.27;55.96;97597.75;5007849;28;20058;-45
2022/06/03 07:26:09;;;;;;;8.48;6.80;;;19.40;65.30;;;19.34;55.68;97592.31;5006209;28;20063;-46
2022/06/03 07:28:55;;;;;;;7.05;5.85;;;19.50;65.80;;;19.41;55.91;97584.19;5006248;28;20069;-46
2022/06/03 07:31:40;;;;;;;7.75;5.90;;;19.50;65.40;;;19.48;55.60;97590.31;5004910;28;20290;-44
2022/06/03 07:34:43;;;;;;;7.50;6.80;;;19.60;65.50;;;19.54;55.51;97584.06;5005968;28;20240;-43
2022/06/03 07:37:52;;;;;;;6.55;5.95;;;19.70;65.60;;;19.64;55.54;97581.69;5005916;28;20064;-46
2022/06/03 07:41:28;;;;;;;7.80;6.32;;;19.80;65.90;;;19.76;55.58;97589.94;5005195;28;20046;-45
2022/06/03 07:44:19;;;;;;;7.05;6.35;;;20.00;65.60;;;19.87;56.08;97588.38;5034812;28;20323;-46
2022/06/03 07:47:02;;;;;;;9.25;6.28;;;20.10;65.30;;;19.97;55.78;97585.19;5004236;28;20050;-44
2022/06/03 07:49:35;;;;;;;7.93;6.60;;;20.20;64.80;;;20.05;55.65;97580.31;5021667;28;20054;-45
2022/06/03 07:52:33;;;;;;;7.30;6.13;;;20.30;64.80;;;20.16;55.58;97576.06;5005706;28;20256;-43
2022/06/03 07:55:16;;;;;;;7.78;5.93;;;20.40;65.00;;;20.27;55.34;97567.16;5006280;28;20352;-45
2022/06/03 07:57:58;;;;;;;6.95;6.25;;;20.50;64.70;;;20.37;54.85;97566.63;5005855;28;20423;-48
2022/06/03 08:00:27;;;;;;;6.72;5.90;;;20.70;64.10;;;20.46;55.00;97565.28;5023595;28;20041;-45
2022/06/03 08:03:04;;;;;;;7.05;6.43;;;20.70;63.70;;;20.56;54.79;97553.13;5032267;28;20045;-46
2022/06/03 08:05:33;;;;;;;6.85;5.95;;;20.90;63.50;;;20.63;54.85;97541.19;5034550;28;20055;-43
2022/06/03 08:11:17;;;;;;;6.90;5.80;;;21.10;63.00;;;20.83;54.29;97540.91;5028964;28;20236;-43
2022/06/03 08:13:50;;;;;;;7.55;6.65;;;21.20;62.60;;;20.93;54.14;97537.66;5033536;28;20382;-45
2022/06/03 08:16:33;;;;;;;7.32;6.57;;;21.20;62.10;;;21.01;54.14;97539.22;5037296;28;20053;-43
2022/06/03 08:19:22;;;;;;;8.63;6.07;;;21.30;61.90;;;21.12;53.61;97534.91;5029959;28;20053;-43
2022/06/03 08:21:57;;;;;;;10.15;6.05;;;21.50;61.40;;;21.23;53.49;97534.13;5032006;28;20045;-43
2022/06/03 08:24:38;;;;;;;7.43;5.80;;;21.60;61.40;;;;;;5024707;28;20083;-43
2022/06/03 08:27:22;;;;;;;7.55;5.80;;;21.70;61.00;;;21.51;53.51;97528.03;5025310;28;20061;-46
2022/06/03 08:30:28;;;;;;;6.82;5.90;;;22.00;60.40;;;21.64;52.99;97524.28;5029901;28;20046;-44
2022/06/03 08:33:04;;;;;;;10.15;6.32;;;22.10;59.40;;;21.78;52.85;97524.88;5017000;28;20076;-48
2022/06/03 08:35:41;;;;;;;7.45;6.13;;;22.20;59.70;;;21.91;52.75;97529.25;5027083;28;20061;-46
2022/06/03 08:38:16;;;;;;;7.13;6.43;;;22.30;59.60;;;21.99;52.58;97526.16;5028815;28;20045;-47
2022/06/03 08:40:50;;;;;;;9.80;7.97;;;22.40;59.10;;;22.08;52.06;97518.47;5029905;28;20058;-44
2022/06/03 08:43:38;;;;;;;8.73;6.43;;;22.50;58.90;;;22.16;51.88;97518.94;5028644;28;20053;-45
2022/06/03 08:46:37;;;;;;;7.30;6.28;;;22.60;58.70;;;22.23;51.88;97513.38;5028476;28;20053;-45
2022/06/03 08:49:20;;;;;;;6.63;5.93;;;22.60;58.90;;;22.30;51.71;97505.97;5027023;28;20065;-46
2022/06/03 08:52:06;;;;;;;7.68;6.20;;;22.70;58.90;;;22.34;51.67;97507.16;5028480;28;20053;-45
2022/06/03 08:54:45;;;;;;;6.50;5.85;;;22.70;59.00;;;22.35;51.69;97513.38;5028837;28;20056;-45
2022/06/03 08:57:40;;;;;;;8.20;5.65;;;22.70;58.70;;;22.35;51.66;97511.53;5026572;28;20259;-46
2022/06/03 09:00:15;;;;;;;6.57;5.95;;;22.60;58.60;;;22.39;51.17;97506.41;5027865;28;20374;-46
2022/06/03 09:03:09;;;;;;;5.57;5.07;;;22.60;58.60;;;22.39;50.90;97498.28;5026488;28;20045;-44
2022/06/03 09:06:06;;;;;;;6.20;5.60;;;22.70;57.60;;;22.41;50.53;97491.56;5027710;28;20045;-47
2022/06/03 09:09:02;;;;;;;5.40;4.90;;;22.70;57.20;;;22.43;50.36;97483.19;5026698;28;20457;-44
2022/06/03 09:11:56;;;;;;;6.97;5.25;;;22.70;57.10;;;22.49;50.45;97478.66;5023076;28;20263;-44
2022/06/03 09:14:27;;;;;;;8.25;5.38;;;22.70;57.50;;;22.54;50.81;97482.31;5035777;28;20339;-46
2022/06/03 09:17:07;;;;;;;14.82;6.07;;;22.80;57.90;;;22.65;50.67;97477.09;5036682;28;20067;-44
2022/06/03 09:19:43;;;;;;;7.78;5.80;;;23.00;57.80;;;22.78;49.77;97485.75;5037658;28;20049;-44
2022/06/03 09:22:20;;;;;;;9.60;5.22;;;23.20;56.60;;;22.88;50.17;97471.53;5038022;28;20045;-45
2022/06/03 09:24:48;;;;;;;10.50;5.38;;;23.30;56.40;;;22.98;50.30;97477.13;5037412;28;20073;-44
2022/06/03 09:27:17;;;;;;;7.05;5.97;;;23.40;56.40;;;23.10;50.12;97473.56;5037337;28;20049;-44
2022/06/03 09:29:52;;;;;;;6.20;4.97;;;23.60;56.30;;;23.27;49.68;97470.88;5038659;28;20053;-46
2022/06/03 09:32:23;;;;;;;8.68;5.00;;;23.70;55.70;;;23.38;49.23;97483.53;5031201;28;20053;-47
2022/06/03 09:35:05;;;;;;;7.70;5.45;;;23.90;55.20;;;23.45;49.09;97486.06;5021675;28;20122;-46
2022/06/03 09:37:38;;;;;;;8.10;5.18;;;23.90;54.20;;;23.51;48.89;97485.91;5023431;28;20352;-47
2022/06/03 09:40:14;;;;;;;5.95;4.40;;;23.90;55.00;;;23.53;48.96;97482.94;5020059;28;20363;-47
2022/06/03 09:43:08;;;;;;;5.63;4.75;;;23.90;54.70;;;23.55;48.37;97489.78;5016319;28;20075;-46
2022/06/03 09:45:46;;;;;;;8.40;4.45;;;24.00;54.00;;;23.56;47.87;97482.44;5010865;28;20376;-48
2022/06/03 09:48:22;;;;;;;5.45;4.05;;;23.80;53.90;;;23.56;47.55;97485.97;5008971;28;20068;-43
2022/06/03 09:50:53;;;;;;;6.15;4.38;;;23.80;53.90;;;23.66;47.56;97484.50;5008406;28;20121;-49
2022/06/03 09:53:30;;;;;;;4.95;3.92;;;23.90;53.60;;;23.73;47.41;97479.69;5008418;28;20056;-46
2022/06/03 09:56:04;;;;;;;6.00;4.53;;;24.00;53.00;;;23.84;47.74;97480.69;5006759;28;20057;-43
2022/06/03 09:58:33;;;;;;;5.05;4.45;;;24.30;53.70;;;23.95;48.20;97486.03;5006257;28;20057;-45
2022/06/03 10:01:07;;;;;;;8.65;4.90;;;24.40;54.20;;;24.06;48.15;97483.44;5007614;28;20167;-43
2022/06/03 10:03:35;;;;;;;8.98;5.25;;;24.60;53.90;;;24.14;47.24;97483.81;5008252;28;20061;-45
2022/06/03 10:06:04;;;;;;;7.15;4.28;;;24.60;52.90;;;24.21;47.40;97482.81;5009041;28;20316;-44
2022/06/03 10:14:07;;;;;;;6.22;4.70;;;24.90;52.20;;;24.47;46.27;97492.94;5006859;28;20053;-46
2022/06/03 10:16:35;;;;;;;9.55;5.15;;;25.00;51.30;;;24.53;46.03;97497.38;5008061;28;20058;-44
2022/06/03 10:19:03;;;;;;;3.92;3.63;;;25.10;51.10;;;24.63;46.17;97499.41;5008465;28;20049;-48
2022/06/03 10:21:32;;;;;;;5.55;4.60;;;25.20;51.20;;;24.75;45.83;97507.41;5008997;28;20054;-47
2022/06/03 10:24:04;;;;;;;4.30;3.90;;;25.40;50.60;;;24.85;45.79;97503.97;5007128;28;20049;-48
2022/06/03 10:26:49;;;;;;;7.00;4.82;;;25.50;50.20;;;24.96;45.23;97490.19;5008184;28;20053;-48
2022/06/03 10:29:25;;;;;;;4.82;4.43;;;25.70;49.50;;;25.07;44.18;97491.13;5007578;28;20041;-47
2022/06/03 10:31:58;;;;;;;5.57;4.57;;;25.80;48.40;;;25.13;44.46;97497.44;5006275;28;20065;-46
2022/06/03 10:34:37;;;;;;;7.32;4.90;;;25.80;48.50;;;25.19;44.27;97479.25;5007448;28;20061;-48
2022/06/03 10:37:21;;;;;;;4.57;4.15;;;25.80;48.00;;;25.27;43.72;97486.97;5007824;28;20061;-46
2022/06/03 10:39:55;;;;;;;4.43;4.00;;;26.00;48.40;;;25.34;44.04;97484.84;5007546;28;20049;-46
2022/06/03 10:42:24;;;;;;;6.15;3.85;;;26.00;48.40;;;25.37;43.52;97480.78;5006869;28;20037;-49
2022/06/03 10:44:59;;;;;;;6.57;4.35;;;26.00;48.40;;;25.37;43.58;97481.59;5007568;28;20605;-46
2022/06/03 10:47:39;;;;;;;5.28;4.68;;;26.00;47.70;;;25.36;43.81;97479.97;5006865;28;20054;-48
2022/06/03 10:50:34;;;;;;;6.32;4.13;;;26.00;48.00;;;25.31;44.48;97477.19;5005315;28;20050;-47
2022/06/03 11:02:16;;;;;;;5.45;4.93;;;25.50;49.70;;;25.19;44.95;97487.41;5007550;28;20360;-46
2022/06/03 11:04:44;;;;;;;5.93;4.57;;;25.60;49.80;;;25.20;44.74;97503.47;5005867;28;20042;-47
2022/06/03 11:07:27;;;;;;;10.00;4.85;;;25.60;50.40;;;25.18;43.96;97504.84;5006970;28;20083;-46
2022/06/03 11:09:56;;;;;;;4.57;4.18;;;25.60;48.80;;;25.09;44.50;97524.38;5008765;28;20046;-47
2022/06/03 11:12:28;;;;;;;4.43;4.03;;;25.40;50.70;;;24.96;44.62;97522.06;5005600;28;20058;-46
2022/06/03 11:14:57;;;;;;;5.95;4.43;;;25.20;49.90;;;24.89;44.78;97532.31;5006233;28;20075;-47
2022/06/03 11:17:36;;;;;;;4.72;4.28;;;25.10;50.40;;;24.76;44.75;97542.56;5006859;28;20054;-46
2022/06/03 11:20:36;;;;;;;3.85;3.53;;;24.90;50.40;;;24.60;45.03;97540.72;5006973;28;20267;-48
2022/06/03 11:23:10;;;;;;;4.90;4.40;;;24.80;50.80;;;24.53;44.74;97529.22;5005942;28;20469;-45
2022/06/03 11:25:42;;;;;;;7.47;4.85;;;24.60;50.90;;;24.48;45.11;97534.56;5004859;28;20250;-46
2022/06/03 11:28:24;;;;;;;6.07;3.80;;;24.60;51.30;;;24.42;44.94;97536.41;5006799;28;20374;-46
2022/06/03 11:31:24;;;;;;;5.85;5.25;;;24.50;51.30;;;24.39;45.04;97528.75;5004718;28;20050;-50
2022/06/03 11:34:47;;;;;;;5.47;4.60;;;24.50;51.30;;;24.32;45.39;97522.66;4990352;28;20265;-48
2022/06/03 11:37:25;;;;;;;5.05;4.53;;;24.50;51.60;;;24.30;45.50;97505.78;4997620;28;20252;-45
2022/06/03 11:40:15;;;;;;;5.13;4.68;;;24.40;51.80;;;24.25;45.96;97503.81;5005559;28;20057;-50
2022/06/03 11:43:07;;;;;;;5.40;4.90;;;24.30;52.40;;;24.18;45.93;97501.28;5005856;28;20075;-48
2022/06/03 11:46:04;;;;;;;4.40;4.00;;;24.30;52.80;;;24.11;46.13;97508.78;5005384;28;20046;-45
2022/06/03 11:48:38;;;;;;;5.10;4.50;;;24.20;52.90;;;24.08;46.23;97500.31;5005690;28;20042;-46
2022/06/03 11:51:10;;;;;;;4.97;4.40;;;24.10;52.80;;;24.04;46.42;97486.44;5005050;28;20383;-46
2022/06/03 11:53:47;;;;;;;4.70;4.20;;;24.10;53.00;;;23.97;46.75;97466.75;5004999;28;20062;-47
2022/06/03 11:56:22;;;;;;;5.95;4.20;;;24.10;53.30;;;23.98;46.72;97433.03;5004391;28;20281;-45
2022/06/03 11:59:28;;;;;;;4.25;3.88;;;24.20;53.20;;;24.09;47.01;97418.50;5006944;28;20057;-49
2022/06/03 12:02:04;;;;;;;5.68;3.95;;;24.30;53.60;;;24.26;47.24;97423.06;5006147;28;20374;-49
2022/06/03 12:04:58;;;;;;;14.65;5.38;;;24.60;53.40;;;24.42;48.54;97424.03;5006176;28;20045;-45
2022/06/03 12:07:42;;;;;;;6.47;5.13;;;24.80;56.20;;;24.60;49.31;97422.88;5005241;28;20057;-48
2022/06/03 12:10:26;;;;;;;5.25;4.55;;;25.10;57.20;;;24.76;50.07;97416.53;5006646;28;20079;-45
2022/06/03 12:13:30;;;;;;;6.05;4.57;;;25.30;57.20;;;24.90;49.55;97412.28;5010838;28;20049;-45
2022/06/03 12:16:18;;;;;;;;;;;25.50;56.50;;;25.02;49.17;97420.28;5008150;28;20054;-47
2022/06/03 12:19:02;;;;;;;6.40;3.92;;;25.60;55.90;;;25.17;47.88;97429.66;5005428;28;19923;-46
2022/06/03 12:21:32;;;;;;;5.50;4.97;;;25.80;53.10;;;25.31;46.93;97444.50;5005320;28;20054;-46
2022/06/03 12:24:40;;;;;;;6.55;4.35;;;26.00;52.40;;;25.44;47.02;97457.69;5004716;28;20057;-48